createdAt,value
2023-03-28T00:01:40.902Z,1.12
2023-03-28T00:03:43.517Z,1.10
2023-03-28T00:05:49.118Z,1.14
2023-03-28T00:07:52.024Z,1.12
2023-03-28T00:09:57.326Z,1.24
2023-03-28T00:12:00.138Z,1.14
2023-03-28T00:14:03.464Z,1.18
2023-03-28T00:16:08.886Z,1.15
2023-03-28T00:18:12.660Z,1.15
2023-03-28T00:20:15.959Z,1.13
2023-03-28T00:22:20.052Z,1.17
2023-03-28T00:24:22.629Z,1.18
2023-03-28T00:26:26.841Z,1.12
2023-03-28T00:28:29.545Z,1.08
2023-03-28T00:30:32.225Z,1.05
2023-03-28T00:32:34.917Z,1.11
2023-03-28T00:34:37.650Z,1.10
2023-03-28T00:36:41.779Z,1.15
2023-03-28T00:38:44.508Z,1.19
2023-03-28T00:40:48.603Z,1.15
2023-03-28T00:42:52.736Z,1.11
2023-03-28T00:44:56.736Z,1.13
2023-03-28T00:46:59.339Z,1.05
2023-03-28T00:49:04.824Z,1.09
2023-03-28T00:51:08.457Z,1.06
2023-03-28T00:53:14.768Z,0.99
2023-03-28T00:55:22.415Z,1.02
2023-03-28T00:57:26.993Z,1.08
2023-03-28T00:59:34.229Z,1.04
2023-03-28T01:01:37.471Z,1.05
2023-03-28T01:03:46.470Z,1.02
2023-03-28T01:05:49.625Z,1.03
2023-03-28T01:07:57.843Z,1.03
2023-03-28T01:10:01.588Z,1.02
2023-03-28T01:12:04.692Z,1.02
2023-03-28T01:14:09.007Z,1.00
2023-03-28T01:16:14.494Z,1.03
2023-03-28T01:18:18.611Z,0.97
2023-03-28T01:20:49.240Z,0.95
2023-03-28T01:23:33.549Z,0.88
2023-03-28T01:26:22.306Z,0.86
2023-03-28T01:28:44.809Z,0.91
2023-03-28T01:31:15.974Z,0.82
2023-03-28T01:33:45.782Z,0.82
2023-03-28T01:36:34.052Z,0.70
2023-03-28T01:38:47.033Z,0.65
2023-03-28T01:40:54.922Z,0.64
2023-03-28T01:43:09.012Z,0.64
2023-03-28T01:45:19.096Z,0.62
2023-03-28T01:47:31.347Z,0.60
2023-03-28T01:49:41.253Z,0.65
2023-03-28T01:51:58.145Z,0.67
2023-03-28T01:54:12.492Z,0.65
2023-03-28T01:56:22.400Z,0.64
2023-03-28T01:58:32.397Z,0.70
2023-03-28T02:00:43.014Z,0.75
2023-03-28T02:02:53.448Z,0.71
2023-03-28T02:04:58.993Z,0.69
2023-03-28T02:07:03.086Z,0.67
2023-03-28T02:09:09.796Z,0.70
2023-03-28T02:11:12.899Z,0.69
2023-03-28T02:13:18.808Z,0.65
2023-03-28T02:15:24.671Z,0.64
2023-03-28T02:17:29.261Z,0.65
2023-03-28T02:19:34.817Z,0.62
2023-03-28T02:21:43.954Z,0.67
2023-03-28T02:23:49.835Z,0.64
2023-03-28T02:25:54.183Z,0.63
2023-03-28T02:28:01.157Z,0.58
2023-03-28T02:30:03.710Z,0.64
2023-03-28T02:32:07.050Z,0.61
2023-03-28T02:34:10.754Z,0.67
2023-03-28T02:36:36.048Z,0.66
2023-03-28T02:38:44.299Z,0.62
2023-03-28T02:40:58.849Z,0.61
2023-03-28T02:43:47.501Z,0.65
2023-03-28T02:46:01.210Z,0.59
2023-03-28T02:48:17.939Z,0.63
2023-03-28T02:50:27.331Z,0.65
2023-03-28T02:52:36.883Z,0.59
2023-03-28T02:54:49.241Z,0.51
2023-03-28T02:57:03.307Z,0.50
2023-03-28T02:59:09.890Z,0.48
2023-03-28T03:01:14.588Z,0.50
2023-03-28T03:03:18.810Z,0.41
2023-03-28T03:05:22.720Z,0.35
2023-03-28T03:07:25.932Z,0.52
2023-03-28T03:09:28.487Z,0.51
2023-03-28T03:11:31.235Z,0.39
2023-03-28T03:13:35.342Z,0.43
2023-03-28T03:15:38.246Z,0.46
2023-03-28T03:17:40.993Z,0.38
2023-03-28T03:19:44.361Z,0.43
2023-03-28T03:21:47.112Z,0.35
2023-03-28T03:23:49.854Z,0.30
2023-03-28T03:25:52.872Z,0.37
2023-03-28T03:27:55.548Z,0.36
2023-03-28T03:29:59.513Z,0.39
2023-03-28T03:32:02.149Z,0.28
2023-03-28T03:34:04.938Z,0.23
2023-03-28T03:36:09.682Z,0.15
2023-03-28T03:38:12.411Z,0.16
2023-03-28T03:40:15.180Z,0.11
2023-03-28T03:42:17.791Z,0.10
2023-03-28T03:44:20.645Z,0.09
2023-03-28T03:46:24.764Z,0.04
2023-03-28T03:48:27.454Z,0.03
2023-03-28T03:50:30.169Z,-0.01
2023-03-28T03:52:32.742Z,-0.07
2023-03-28T03:54:36.841Z,-0.12
2023-03-28T03:56:40.860Z,-0.19
2023-03-28T03:58:43.692Z,-0.18
2023-03-28T04:00:46.625Z,-0.16
2023-03-28T04:02:50.643Z,-0.22
2023-03-28T04:04:53.552Z,-0.19
2023-03-28T04:06:58.204Z,-0.26
2023-03-28T04:09:01.118Z,-0.27
2023-03-28T04:11:03.780Z,-0.32
2023-03-28T04:13:06.469Z,-0.31
2023-03-28T04:15:10.193Z,-0.34
2023-03-28T04:17:13.817Z,-0.32
2023-03-28T04:19:18.175Z,-0.35
2023-03-28T04:21:25.678Z,-0.35
2023-03-28T04:23:28.644Z,-0.41
2023-03-28T04:25:31.502Z,-0.37
2023-03-28T04:27:34.105Z,-0.41
2023-03-28T04:29:37.026Z,-0.38
2023-03-28T04:31:40.399Z,-0.48
2023-03-28T04:33:45.288Z,-0.45
2023-03-28T04:35:51.286Z,-0.39
2023-03-28T04:37:57.754Z,-0.30
2023-03-28T04:40:01.623Z,-0.36
2023-03-28T04:42:05.864Z,-0.37
2023-03-28T04:44:08.535Z,-0.50
2023-03-28T04:46:11.820Z,-0.42
2023-03-28T04:48:14.496Z,-0.39
2023-03-28T04:50:17.276Z,-0.39
2023-03-28T04:52:21.351Z,-0.40
2023-03-28T04:54:23.959Z,-0.40
2023-03-28T04:56:27.212Z,-0.43
2023-03-28T04:58:29.930Z,-0.54
2023-03-28T05:00:32.983Z,-0.48
2023-03-28T05:02:35.851Z,-0.51
2023-03-28T05:04:40.371Z,-0.52
2023-03-28T05:06:43.009Z,-0.47
2023-03-28T05:08:47.053Z,-0.52
2023-03-28T05:10:50.972Z,-0.48
2023-03-28T05:12:53.630Z,-0.48
2023-03-28T05:14:56.242Z,-0.48
2023-03-28T05:16:58.873Z,-0.55
2023-03-28T05:19:01.667Z,-0.55
2023-03-28T05:21:04.645Z,-0.53
2023-03-28T05:23:07.654Z,-0.59
2023-03-28T05:25:11.906Z,-0.50
2023-03-28T05:27:14.680Z,-0.53
2023-03-28T05:29:17.302Z,-0.52
2023-03-28T05:31:19.891Z,-0.52
2023-03-28T05:33:22.669Z,-0.45
2023-03-28T05:35:25.389Z,-0.40
2023-03-28T05:37:28.607Z,-0.37
2023-03-28T05:39:31.427Z,-0.29
2023-03-28T05:41:35.454Z,-0.23
2023-03-28T05:43:38.057Z,-0.29
2023-03-28T05:45:41.793Z,-0.25
2023-03-28T05:47:44.548Z,-0.28
2023-03-28T05:49:47.220Z,-0.10
2023-03-28T05:51:49.932Z,-0.05
2023-03-28T05:53:52.569Z,-0.03
2023-03-28T05:55:55.220Z,-0.02
2023-03-28T05:58:00.036Z,0.03
2023-03-28T06:00:04.010Z,0.05
2023-03-28T06:02:07.543Z,0.10
2023-03-28T06:04:10.784Z,0.14
2023-03-28T06:06:13.674Z,0.17
2023-03-28T06:08:16.580Z,0.25
2023-03-28T06:10:19.485Z,0.29
2023-03-28T06:12:22.082Z,0.37
2023-03-28T06:14:26.080Z,0.40
2023-03-28T06:16:31.211Z,0.52
2023-03-28T06:18:34.440Z,0.60
2023-03-28T06:20:37.026Z,0.70
2023-03-28T06:22:40.751Z,0.72
2023-03-28T06:24:43.340Z,0.82
2023-03-28T06:26:46.275Z,0.87
2023-03-28T06:28:48.900Z,0.93
2023-03-28T06:30:52.900Z,1.01
2023-03-28T06:32:55.737Z,1.22
2023-03-28T06:34:58.363Z,1.30
2023-03-28T06:37:01.828Z,1.29
2023-03-28T06:39:05.219Z,1.38
2023-03-28T06:41:08.103Z,1.41
2023-03-28T06:43:10.708Z,1.59
2023-03-28T06:45:13.311Z,1.58
2023-03-28T06:47:17.251Z,1.70
2023-03-28T06:49:19.901Z,1.79
2023-03-28T06:51:22.480Z,1.96
2023-03-28T06:53:25.607Z,2.10
2023-03-28T06:55:28.254Z,2.18
2023-03-28T06:57:30.916Z,2.62
2023-03-28T06:59:33.565Z,3.58
2023-03-28T07:01:36.231Z,4.01
2023-03-28T07:03:40.339Z,3.64
2023-03-28T07:05:44.004Z,4.14
2023-03-28T07:07:46.658Z,3.58
2023-03-28T07:09:51.812Z,5.11
2023-03-28T07:11:54.499Z,4.69
2023-03-28T07:13:57.139Z,5.40
2023-03-28T07:16:04.880Z,4.53
2023-03-28T07:18:10.476Z,5.61
2023-03-28T07:20:14.945Z,5.86
2023-03-28T07:22:17.572Z,5.49
2023-03-28T07:24:20.559Z,5.42
2023-03-28T07:26:23.181Z,4.47
2023-03-28T07:28:25.897Z,3.89
2023-03-28T07:30:28.516Z,3.88
2023-03-28T07:32:38.902Z,5.24
2023-03-28T07:34:50.332Z,4.26
2023-03-28T07:36:54.348Z,4.51
2023-03-28T07:38:56.974Z,6.89
2023-03-28T07:41:01.211Z,6.67
2023-03-28T07:43:04.261Z,7.30
2023-03-28T07:45:07.930Z,5.80
2023-03-28T07:47:11.288Z,4.45
2023-03-28T07:49:15.336Z,5.81
2023-03-28T07:51:18.502Z,7.40
2023-03-28T07:53:22.539Z,7.87
2023-03-28T07:55:26.210Z,8.03
2023-03-28T07:57:28.796Z,6.29
2023-03-28T07:59:31.392Z,5.28
2023-03-28T08:01:34.010Z,5.84
2023-03-28T08:03:37.096Z,5.74
2023-03-28T08:05:39.905Z,6.20
2023-03-28T08:07:45.926Z,6.16
2023-03-28T08:09:50.945Z,6.92
2023-03-28T08:11:53.560Z,7.23
2023-03-28T08:13:56.157Z,7.01
2023-03-28T08:15:58.913Z,6.84
2023-03-28T08:18:01.542Z,7.13
2023-03-28T08:20:09.306Z,5.34
2023-03-28T08:22:13.105Z,4.86
2023-03-28T08:24:25.438Z,4.69
2023-03-28T08:26:37.543Z,5.14
2023-03-28T08:28:41.119Z,4.43
2023-03-28T08:30:43.718Z,4.18
2023-03-28T08:32:48.790Z,4.69
2023-03-28T08:34:51.595Z,5.75
2023-03-28T08:36:54.232Z,6.33
2023-03-28T08:39:00.622Z,7.12
2023-03-28T08:41:15.708Z,5.76
2023-03-28T08:43:40.876Z,6.09
2023-03-28T08:45:51.503Z,5.70
2023-03-28T08:48:01.376Z,6.21
2023-03-28T08:50:12.344Z,5.11
2023-03-28T08:52:19.619Z,5.20
2023-03-28T08:54:25.840Z,5.90
2023-03-28T08:56:29.625Z,7.70
2023-03-28T08:58:42.536Z,6.99
2023-03-28T09:00:45.226Z,6.46
2023-03-28T09:02:50.471Z,5.77
2023-03-28T09:05:05.113Z,6.75
2023-03-28T09:07:26.384Z,6.18
2023-03-28T09:09:43.238Z,5.88
2023-03-28T09:12:03.438Z,7.29
2023-03-28T09:14:23.589Z,8.21
2023-03-28T09:16:53.104Z,6.26
2023-03-28T09:19:11.447Z,5.48
2023-03-28T09:21:22.218Z,6.30
2023-03-28T09:23:51.416Z,5.05
2023-03-28T09:26:02.021Z,7.94
2023-03-28T09:28:15.924Z,7.87
2023-03-28T09:30:22.621Z,7.39
2023-03-28T09:32:27.395Z,7.76
2023-03-28T09:34:38.371Z,7.24
2023-03-28T09:36:48.840Z,5.70
2023-03-28T09:38:56.037Z,6.00
2023-03-28T09:41:03.262Z,5.77
2023-03-28T09:43:11.483Z,4.97
2023-03-28T09:45:30.392Z,4.98
2023-03-28T09:47:34.115Z,7.01
2023-03-28T09:49:36.877Z,8.20
2023-03-28T09:51:39.495Z,8.21
2023-03-28T09:53:42.478Z,8.86
2023-03-28T09:55:51.546Z,7.24
2023-03-28T09:58:06.920Z,8.75
2023-03-28T10:00:22.206Z,9.08
2023-03-28T10:02:29.696Z,8.85
2023-03-28T10:04:36.362Z,7.35
2023-03-28T10:06:40.232Z,7.23
2023-03-28T10:08:42.922Z,7.10
2023-03-28T10:10:46.063Z,6.90
2023-03-28T10:12:49.962Z,6.63
2023-03-28T10:14:53.404Z,6.99
2023-03-28T10:16:56.097Z,7.20
2023-03-28T10:19:00.255Z,7.37
2023-03-28T10:21:10.331Z,7.26
2023-03-28T10:23:14.224Z,6.98
2023-03-28T10:25:20.600Z,6.03
2023-03-28T10:27:26.702Z,6.62
2023-03-28T10:29:30.154Z,6.92
2023-03-28T10:31:33.953Z,7.70
2023-03-28T10:33:41.339Z,8.10
2023-03-28T10:35:46.506Z,7.64
2023-03-28T10:37:49.279Z,7.23
2023-03-28T10:40:05.220Z,6.63
2023-03-28T10:42:07.926Z,7.52
2023-03-28T10:44:19.183Z,7.42
2023-03-28T10:46:24.333Z,7.89
2023-03-28T10:48:31.290Z,7.67
2023-03-28T10:50:38.858Z,8.23
2023-03-28T10:52:51.449Z,8.69
2023-03-28T10:55:08.142Z,7.87
2023-03-28T10:57:20.322Z,8.01
2023-03-28T10:59:48.524Z,7.91
2023-03-28T11:02:03.925Z,7.54
2023-03-28T11:04:23.106Z,6.93
2023-03-28T11:06:34.229Z,7.80
2023-03-28T11:08:49.858Z,8.34
2023-03-28T11:11:03.735Z,6.97
2023-03-28T11:13:20.699Z,7.50
2023-03-28T11:15:31.215Z,7.46
2023-03-28T11:17:44.480Z,7.73
2023-03-28T11:20:08.971Z,8.01
2023-03-28T11:22:22.877Z,7.37
2023-03-28T11:24:35.490Z,7.87
2023-03-28T11:26:41.895Z,7.69
2023-03-28T11:28:59.780Z,8.23
2023-03-28T11:31:03.123Z,7.49
2023-03-28T11:33:14.117Z,7.39
2023-03-28T11:35:23.469Z,7.48
2023-03-28T11:37:31.916Z,7.84
2023-03-28T11:39:42.672Z,6.80
2023-03-28T11:41:48.410Z,7.25
2023-03-28T11:43:54.084Z,7.42
2023-03-28T11:46:02.700Z,7.92
2023-03-28T11:48:11.776Z,7.75
2023-03-28T11:50:19.676Z,8.51
2023-03-28T11:52:26.532Z,8.20
2023-03-28T11:54:36.865Z,8.68
2023-03-28T11:56:52.071Z,8.22
2023-03-28T11:59:00.749Z,8.71
2023-03-28T12:01:07.736Z,8.67
2023-03-28T12:03:17.348Z,6.96
2023-03-28T12:05:25.974Z,7.85
2023-03-28T12:07:35.860Z,7.65
2023-03-28T12:09:55.426Z,7.51
2023-03-28T12:12:05.623Z,7.54
2023-03-28T12:14:25.324Z,7.33
2023-03-28T12:16:34.567Z,6.93
2023-03-28T12:18:42.979Z,7.58
2023-03-28T12:20:56.003Z,8.12
2023-03-28T12:23:04.815Z,7.08
2023-03-28T12:25:13.589Z,8.27
2023-03-28T12:27:25.565Z,7.94
2023-03-28T12:29:37.337Z,8.38
2023-03-28T12:31:46.432Z,8.21
2023-03-28T12:33:57.404Z,6.82
2023-03-28T12:36:07.511Z,7.83
2023-03-28T12:38:21.035Z,7.58
2023-03-28T12:40:30.407Z,8.28
2023-03-28T12:42:36.268Z,7.86
2023-03-28T12:44:44.972Z,8.11
2023-03-28T12:46:52.961Z,8.18
2023-03-28T12:49:00.171Z,8.80
2023-03-28T12:51:08.267Z,8.33
2023-03-28T12:53:13.263Z,7.31
2023-03-28T12:55:48.635Z,7.53
2023-03-28T12:57:56.426Z,8.40
2023-03-28T13:00:14.922Z,7.85
2023-03-28T13:02:20.457Z,7.90
2023-03-28T13:04:29.521Z,8.60
2023-03-28T13:06:44.221Z,8.35
2023-03-28T13:09:01.901Z,8.12
2023-03-28T13:11:14.337Z,8.03
2023-03-28T13:13:28.259Z,8.42
2023-03-28T13:15:33.269Z,8.61
2023-03-28T13:17:39.151Z,8.94
2023-03-28T13:19:52.759Z,8.17
2023-03-28T13:21:57.532Z,8.04
2023-03-28T13:24:01.161Z,8.27
2023-03-28T13:26:05.420Z,8.72
2023-03-28T13:28:30.580Z,8.73
2023-03-28T13:30:33.576Z,8.86
2023-03-28T13:32:43.274Z,9.02
2023-03-28T13:34:50.494Z,8.52
2023-03-28T13:36:56.658Z,9.07
2023-03-28T13:39:27.566Z,9.12
2023-03-28T13:41:35.700Z,9.47
2023-03-28T13:43:44.972Z,9.29
2023-03-28T13:45:48.114Z,9.09
2023-03-28T13:47:59.794Z,9.26
2023-03-28T13:50:20.682Z,9.99
2023-03-28T13:52:25.677Z,9.89
2023-03-28T13:54:28.804Z,9.34
2023-03-28T13:56:34.197Z,9.52
2023-03-28T13:58:37.658Z,9.61
2023-03-28T14:00:41.720Z,9.51
2023-03-28T14:02:46.747Z,9.64
2023-03-28T14:04:55.024Z,8.57
2023-03-28T14:06:57.890Z,8.61
2023-03-28T14:09:02.790Z,9.48
2023-03-28T14:11:05.817Z,9.81
2023-03-28T14:13:14.629Z,9.67
2023-03-28T14:15:24.045Z,9.74
2023-03-28T14:17:33.012Z,9.55
2023-03-28T14:19:40.758Z,9.19
2023-03-28T14:21:43.963Z,8.42
2023-03-28T14:23:57.645Z,9.09
2023-03-28T14:26:02.459Z,8.69
2023-03-28T14:28:09.433Z,9.12
2023-03-28T14:30:19.670Z,8.86
2023-03-28T14:32:25.956Z,9.02
2023-03-28T14:34:32.211Z,9.34
2023-03-28T14:36:37.759Z,9.60
2023-03-28T14:38:40.660Z,8.62
2023-03-28T14:40:44.807Z,8.58
2023-03-28T14:42:50.109Z,8.52
2023-03-28T14:44:55.300Z,8.92
2023-03-28T14:47:00.156Z,9.00
2023-03-28T14:49:06.265Z,9.13
2023-03-28T14:51:13.849Z,9.61
2023-03-28T14:53:21.478Z,9.17
2023-03-28T14:55:26.158Z,9.27
2023-03-28T14:57:29.159Z,8.99
2023-03-28T14:59:40.794Z,9.38
2023-03-28T15:01:45.178Z,9.56
2023-03-28T15:03:52.438Z,9.48
2023-03-28T15:05:55.631Z,9.12
2023-03-28T15:08:02.873Z,9.01
2023-03-28T15:10:09.373Z,9.05
2023-03-28T15:12:15.939Z,9.11
2023-03-28T15:14:30.096Z,9.17
2023-03-28T15:16:37.738Z,9.49
2023-03-28T15:18:44.464Z,9.51
2023-03-28T15:20:52.708Z,9.66
2023-03-28T15:22:57.807Z,9.50
2023-03-28T15:25:01.924Z,9.45
2023-03-28T15:27:05.770Z,9.46
2023-03-28T15:29:09.786Z,9.32
2023-03-28T15:31:14.959Z,9.07
2023-03-28T15:33:21.017Z,9.50
2023-03-28T15:35:30.593Z,9.33
2023-03-28T15:37:42.205Z,9.11
2023-03-28T15:39:47.657Z,9.60
2023-03-28T15:41:54.948Z,9.07
2023-03-28T15:44:00.715Z,9.26
2023-03-28T15:46:08.925Z,9.02
2023-03-28T15:48:19.746Z,9.09
2023-03-28T15:50:27.611Z,9.03
2023-03-28T15:52:31.691Z,9.59
2023-03-28T15:54:42.627Z,9.42
2023-03-28T15:56:48.519Z,9.59
2023-03-28T15:58:53.614Z,9.38
2023-03-28T16:00:56.332Z,9.43
2023-03-28T16:03:34.491Z,9.20
2023-03-28T16:05:37.858Z,9.01
2023-03-28T16:07:50.490Z,9.20
2023-03-28T16:09:52.990Z,9.01
2023-03-28T16:12:03.137Z,9.18
2023-03-28T16:14:07.199Z,9.09
2023-03-28T16:16:15.431Z,9.05
2023-03-28T16:18:20.355Z,9.25
2023-03-28T16:20:25.208Z,9.12
2023-03-28T16:22:27.949Z,9.26
2023-03-28T16:24:31.327Z,9.07
2023-03-28T16:26:34.925Z,8.84
2023-03-28T16:28:37.646Z,8.99
2023-03-28T16:30:42.513Z,9.11
2023-03-28T16:32:45.313Z,9.02
2023-03-28T16:34:48.537Z,9.10
2023-03-28T16:36:51.675Z,8.91
2023-03-28T16:38:54.338Z,8.83
2023-03-28T16:40:56.949Z,8.78
2023-03-28T16:43:00.311Z,8.83
2023-03-28T16:45:03.096Z,8.74
2023-03-28T16:47:07.230Z,8.81
2023-03-28T16:49:09.977Z,8.65
2023-03-28T16:51:12.908Z,8.63
2023-03-28T16:53:15.774Z,8.65
2023-03-28T16:55:20.013Z,8.62
2023-03-28T16:57:23.130Z,8.57
2023-03-28T16:59:29.045Z,8.48
2023-03-28T17:01:31.712Z,8.29
2023-03-28T17:03:36.717Z,8.30
2023-03-28T17:05:39.587Z,8.23
2023-03-28T17:07:42.512Z,8.16
2023-03-28T17:09:45.159Z,8.15
2023-03-28T17:11:47.809Z,8.12
2023-03-28T17:13:53.108Z,8.13
2023-03-28T17:15:56.308Z,8.10
2023-03-28T17:17:59.215Z,7.97
2023-03-28T17:20:03.429Z,8.00
2023-03-28T17:22:06.623Z,7.97
2023-03-28T17:24:11.537Z,7.87
2023-03-28T17:26:17.165Z,7.70
2023-03-28T17:28:19.793Z,7.57
2023-03-28T17:30:22.785Z,7.68
2023-03-28T17:32:25.795Z,7.54
2023-03-28T17:34:31.790Z,7.44
2023-03-28T17:36:36.417Z,7.28
2023-03-28T17:38:39.108Z,7.46
2023-03-28T17:40:47.157Z,7.35
2023-03-28T17:42:49.805Z,7.33
2023-03-28T17:44:54.543Z,7.33
2023-03-28T17:46:57.519Z,7.17
2023-03-28T17:49:00.270Z,7.02
2023-03-28T17:51:03.850Z,7.10
2023-03-28T17:53:07.854Z,6.95
2023-03-28T17:55:10.648Z,7.05
2023-03-28T17:57:13.683Z,7.04
2023-03-28T17:59:16.813Z,6.90
2023-03-28T18:01:19.616Z,6.95
2023-03-28T18:03:23.337Z,6.94
2023-03-28T18:05:28.149Z,6.99
2023-03-28T18:07:30.842Z,6.99
2023-03-28T18:09:36.462Z,6.97
2023-03-28T18:11:39.796Z,6.87
2023-03-28T18:13:43.090Z,6.83
2023-03-28T18:15:45.758Z,6.91
2023-03-28T18:17:48.418Z,6.93
2023-03-28T18:19:51.095Z,6.95
2023-03-28T18:21:54.628Z,6.89
2023-03-28T18:24:00.479Z,6.93
2023-03-28T18:26:05.436Z,6.87
2023-03-28T18:28:08.670Z,6.86
2023-03-28T18:30:12.248Z,6.88
2023-03-28T18:32:14.859Z,6.80
2023-03-28T18:34:17.606Z,6.82
2023-03-28T18:36:20.373Z,6.81
2023-03-28T18:38:23.009Z,6.86
2023-03-28T18:40:25.735Z,6.78
2023-03-28T18:42:31.407Z,6.73
2023-03-28T18:44:35.689Z,6.71
2023-03-28T18:46:38.727Z,6.71
2023-03-28T18:48:41.748Z,6.56
2023-03-28T18:50:44.453Z,6.52
2023-03-28T18:52:47.792Z,6.39
2023-03-28T18:54:51.008Z,6.36
2023-03-28T18:56:53.725Z,6.37
2023-03-28T18:58:58.257Z,6.39
2023-03-28T19:01:03.461Z,6.35
2023-03-28T19:03:09.070Z,6.44
2023-03-28T19:05:12.149Z,6.47
2023-03-28T19:07:14.880Z,6.42
2023-03-28T19:09:17.495Z,6.47
2023-03-28T19:11:20.568Z,6.46
2023-03-28T19:13:23.496Z,6.37
2023-03-28T19:15:27.497Z,6.44
2023-03-28T19:17:30.728Z,6.36
2023-03-28T19:19:37.173Z,6.32
2023-03-28T19:21:39.876Z,6.29
2023-03-28T19:23:42.746Z,6.37
2023-03-28T19:25:45.438Z,6.35
2023-03-28T19:27:50.317Z,6.43
2023-03-28T19:29:52.882Z,6.41
2023-03-28T19:31:56.893Z,6.43
2023-03-28T19:33:59.612Z,6.42
2023-03-28T19:36:02.457Z,6.53
2023-03-28T19:38:05.344Z,6.42
2023-03-28T19:40:09.593Z,6.47
2023-03-28T19:42:12.269Z,6.60
2023-03-28T19:44:14.900Z,6.58
2023-03-28T19:46:23.887Z,6.57
2023-03-28T19:48:30.248Z,6.60
2023-03-28T19:50:35.736Z,6.66
2023-03-28T19:52:39.512Z,6.71
2023-03-28T19:54:42.156Z,6.81
2023-03-28T19:56:44.889Z,6.78
2023-03-28T19:58:47.968Z,6.74
2023-03-28T20:00:51.175Z,6.74
2023-03-28T20:02:53.961Z,6.75
2023-03-28T20:04:58.259Z,6.83
2023-03-28T20:07:00.898Z,6.76
2023-03-28T20:09:03.743Z,6.74
2023-03-28T20:11:09.377Z,6.78
2023-03-28T20:13:12.364Z,6.80
2023-03-28T20:15:14.987Z,6.82
2023-03-28T20:17:17.998Z,6.85
2023-03-28T20:19:20.651Z,6.81
2023-03-28T20:21:24.637Z,6.77
2023-03-28T20:23:29.029Z,6.75
2023-03-28T20:25:33.074Z,6.78
2023-03-28T20:27:37.220Z,6.80
2023-03-28T20:29:40.100Z,6.78
2023-03-28T20:31:42.729Z,6.89
2023-03-28T20:33:46.160Z,6.79
2023-03-28T20:35:52.732Z,6.78
2023-03-28T20:37:56.970Z,6.83
2023-03-28T20:40:02.446Z,6.78
2023-03-28T20:42:06.192Z,6.81
2023-03-28T20:44:08.877Z,6.81
2023-03-28T20:46:12.674Z,6.81
2023-03-28T20:48:16.687Z,6.78
2023-03-28T20:50:19.527Z,6.78
2023-03-28T20:52:22.100Z,6.71
2023-03-28T20:54:27.816Z,6.68
2023-03-28T20:56:32.302Z,6.68
2023-03-28T20:58:35.286Z,6.66
2023-03-28T21:00:37.912Z,6.64
2023-03-28T21:02:41.022Z,6.65
2023-03-28T21:04:44.006Z,6.66
2023-03-28T21:06:46.668Z,6.69
2023-03-28T21:08:51.115Z,6.75
2023-03-28T21:10:55.057Z,6.78
2023-03-28T21:12:57.714Z,6.81
2023-03-28T21:15:00.320Z,6.85
2023-03-28T21:17:07.233Z,6.70
2023-03-28T21:19:09.939Z,6.68
2023-03-28T21:21:14.942Z,6.69
2023-03-28T21:23:17.623Z,6.78
2023-03-28T21:25:20.886Z,6.62
2023-03-28T21:27:24.820Z,6.60
2023-03-28T21:29:27.699Z,6.67
2023-03-28T21:31:30.829Z,6.63
2023-03-28T21:33:33.544Z,6.65
2023-03-28T21:35:36.610Z,6.65
2023-03-28T21:37:39.356Z,6.69
2023-03-28T21:39:42.047Z,6.65
2023-03-28T21:41:44.645Z,6.55
2023-03-28T21:43:48.661Z,6.66
2023-03-28T21:45:51.732Z,6.58
2023-03-28T21:47:54.392Z,6.61
2023-03-28T21:50:00.080Z,6.65
2023-03-28T21:52:02.749Z,6.66
2023-03-28T21:54:05.951Z,6.66
2023-03-28T21:56:11.493Z,6.63
2023-03-28T21:58:14.261Z,6.66
2023-03-28T22:00:18.839Z,6.61
2023-03-28T22:02:21.548Z,6.58
2023-03-28T22:04:24.168Z,6.65
2023-03-28T22:06:26.995Z,6.89
2023-03-28T22:08:29.707Z,6.91
2023-03-28T22:10:32.452Z,6.74
2023-03-28T22:12:35.149Z,6.59
2023-03-28T22:14:37.797Z,6.47
2023-03-28T22:16:41.874Z,6.52
2023-03-28T22:18:49.641Z,6.54
2023-03-28T22:20:53.854Z,6.51
2023-03-28T22:23:01.087Z,6.46
2023-03-28T22:25:04.335Z,6.68
2023-03-28T22:27:07.176Z,6.58
2023-03-28T22:29:10.459Z,6.46
2023-03-28T22:31:13.654Z,6.38
2023-03-28T22:33:19.265Z,6.44
2023-03-28T22:35:21.989Z,6.36
2023-03-28T22:37:24.599Z,6.41
2023-03-28T22:39:27.192Z,6.26
2023-03-28T22:41:31.736Z,6.33
2023-03-28T22:43:35.503Z,6.34
2023-03-28T22:45:38.291Z,6.53
2023-03-28T22:47:40.995Z,6.59
2023-03-28T22:49:46.070Z,6.52
2023-03-28T22:51:49.456Z,6.38
2023-03-28T22:53:52.931Z,6.32
2023-03-28T22:55:56.622Z,6.12
2023-03-28T22:57:59.539Z,5.97
2023-03-28T23:00:02.293Z,5.86
2023-03-28T23:02:05.012Z,5.82
2023-03-28T23:04:07.744Z,5.72
2023-03-28T23:06:13.576Z,5.57
2023-03-28T23:08:16.176Z,5.43
2023-03-28T23:10:19.942Z,5.46
2023-03-28T23:12:22.535Z,5.39
2023-03-28T23:14:25.239Z,5.32
2023-03-28T23:16:27.983Z,5.39
2023-03-28T23:18:31.083Z,5.34
2023-03-28T23:20:33.736Z,5.28
2023-03-28T23:22:37.984Z,5.27
2023-03-28T23:24:40.978Z,5.14
2023-03-28T23:26:43.541Z,5.07
2023-03-28T23:28:46.423Z,5.13
2023-03-28T23:30:49.100Z,5.09
2023-03-28T23:32:51.988Z,4.97
2023-03-28T23:34:54.898Z,5.01
2023-03-28T23:36:58.009Z,5.03
2023-03-28T23:39:02.612Z,5.10
2023-03-28T23:41:06.493Z,5.13
2023-03-28T23:43:09.149Z,5.28
2023-03-28T23:45:12.820Z,5.33
2023-03-28T23:47:15.826Z,5.21
2023-03-28T23:49:18.617Z,5.34
2023-03-28T23:51:21.204Z,5.20
2023-03-28T23:53:23.787Z,5.06
2023-03-28T23:55:27.941Z,4.99
2023-03-28T23:57:30.564Z,5.23
2023-03-28T23:59:33.237Z,5.01
